sensor_id;sensor_type;location;lat;lon;timestamp;pressure;altitude;pressure_sealevel;temperature;humidity
59411;BME280;45215;32.610;-115.482;2022-07-23T00:00:52;100224.34;;;24.63;51.04
59411;BME280;45215;32.610;-115.482;2022-07-23T00:03:18;100213.34;;;24.83;50.66
59411;BME280;45215;32.610;-115.482;2022-07-23T00:05:44;100219.72;;;25.02;49.47
59411;BME280;45215;32.610;-115.482;2022-07-23T00:08:10;100205.78;;;24.67;43.09
59411;BME280;45215;32.610;-115.482;2022-07-23T00:10:36;100203.41;;;24.07;40.89
59411;BME280;45215;32.610;-115.482;2022-07-23T00:13:02;100199.00;;;23.54;39.48
59411;BME280;45215;32.610;-115.482;2022-07-23T00:15:28;100196.34;;;23.14;38.22
59411;BME280;45215;32.610;-115.482;2022-07-23T00:17:54;100197.81;;;22.84;37.18
59411;BME280;45215;32.610;-115.482;2022-07-23T00:20:19;100195.28;;;22.62;36.52
59411;BME280;45215;32.610;-115.482;2022-07-23T00:22:49;100196.72;;;22.45;35.85
59411;BME280;45215;32.610;-115.482;2022-07-23T00:25:15;100196.50;;;22.33;34.97
59411;BME280;45215;32.610;-115.482;2022-07-23T00:27:40;100194.56;;;22.20;34.57
59411;BME280;45215;32.610;-115.482;2022-07-23T00:30:07;100187.28;;;22.14;34.23
59411;BME280;45215;32.610;-115.482;2022-07-23T00:32:44;100199.38;;;22.32;39.85
59411;BME280;45215;32.610;-115.482;2022-07-23T00:35:10;100189.72;;;22.90;45.73
59411;BME280;45215;32.610;-115.482;2022-07-23T00:37:35;100193.81;;;23.39;47.92
59411;BME280;45215;32.610;-115.482;2022-07-23T00:40:01;100192.66;;;23.80;49.99
59411;BME280;45215;32.610;-115.482;2022-07-23T00:42:27;100187.72;;;24.16;51.07
59411;BME280;45215;32.610;-115.482;2022-07-23T00:44:53;100187.59;;;24.42;51.49
59411;BME280;45215;32.610;-115.482;2022-07-23T00:47:18;100186.38;;;24.63;51.89
59411;BME280;45215;32.610;-115.482;2022-07-23T00:49:44;100173.56;;;24.77;51.31
59411;BME280;45215;32.610;-115.482;2022-07-23T00:52:10;100183.50;;;24.83;47.41
59411;BME280;45215;32.610;-115.482;2022-07-23T00:54:36;100179.09;;;24.32;42.68
59411;BME280;45215;32.610;-115.482;2022-07-23T00:57:01;100177.28;;;23.81;40.03
59411;BME280;45215;32.610;-115.482;2022-07-23T00:59:28;100170.50;;;23.38;38.54
59411;BME280;45215;32.610;-115.482;2022-07-23T01:01:54;100165.16;;;23.05;37.43
59411;BME280;45215;32.610;-115.482;2022-07-23T01:04:20;100169.53;;;22.80;36.83
59411;BME280;45215;32.610;-115.482;2022-07-23T01:06:45;100167.63;;;22.60;36.13
59411;BME280;45215;32.610;-115.482;2022-07-23T01:09:11;100160.53;;;22.46;35.56
59411;BME280;45215;32.610;-115.482;2022-07-23T01:11:37;100163.84;;;22.35;34.90
59411;BME280;45215;32.610;-115.482;2022-07-23T01:14:10;100166.72;;;22.26;34.31
59411;BME280;45215;32.610;-115.482;2022-07-23T01:16:37;100160.06;;;22.16;33.72
59411;BME280;45215;32.610;-115.482;2022-07-23T01:19:02;100161.09;;;22.15;36.03
59411;BME280;45215;32.610;-115.482;2022-07-23T01:21:33;100171.81;;;22.69;43.87
59411;BME280;45215;32.610;-115.482;2022-07-23T01:24:00;100168.91;;;22.84;37.89
59411;BME280;45215;32.610;-115.482;2022-07-23T01:26:26;100169.91;;;22.63;35.99
59411;BME280;45215;32.610;-115.482;2022-07-23T01:28:52;100162.59;;;22.44;34.87
59411;BME280;45215;32.610;-115.482;2022-07-23T01:31:18;100169.03;;;22.29;34.24
59411;BME280;45215;32.610;-115.482;2022-07-23T01:33:44;100165.06;;;22.19;33.79
59411;BME280;45215;32.610;-115.482;2022-07-23T01:36:10;100174.28;;;22.51;41.58
59411;BME280;45215;32.610;-115.482;2022-07-23T01:38:36;100165.56;;;22.89;39.75
59411;BME280;45215;32.610;-115.482;2022-07-23T01:41:02;100171.19;;;22.74;36.21
59411;BME280;45215;32.610;-115.482;2022-07-23T01:43:29;100165.13;;;22.52;34.91
59411;BME280;45215;32.610;-115.482;2022-07-23T01:45:55;100164.91;;;22.34;34.27
59411;BME280;45215;32.610;-115.482;2022-07-23T01:48:21;100168.16;;;22.16;33.53
59411;BME280;45215;32.610;-115.482;2022-07-23T01:50:47;100165.88;;;22.13;37.19
59411;BME280;45215;32.610;-115.482;2022-07-23T01:53:13;100182.59;;;22.63;42.64
59411;BME280;45215;32.610;-115.482;2022-07-23T01:55:39;100172.41;;;22.65;37.07
59411;BME280;45215;32.610;-115.482;2022-07-23T01:58:05;100166.34;;;22.43;34.96
59411;BME280;45215;32.610;-115.482;2022-07-23T02:00:31;100175.25;;;22.23;33.91
59411;BME280;45215;32.610;-115.482;2022-07-23T02:02:57;100171.91;;;22.08;35.02
59411;BME280;45215;32.610;-115.482;2022-07-23T02:05:24;100176.34;;;22.49;42.68
59411;BME280;45215;32.610;-115.482;2022-07-23T02:07:50;100176.59;;;22.67;38.04
59411;BME280;45215;32.610;-115.482;2022-07-23T02:10:16;100180.50;;;22.45;35.46
59411;BME280;45215;32.610;-115.482;2022-07-23T02:12:42;100178.38;;;22.20;34.33
59411;BME280;45215;32.610;-115.482;2022-07-23T02:15:08;100185.16;;;22.03;33.46
59411;BME280;45215;32.610;-115.482;2022-07-23T02:17:34;100193.34;;;22.29;41.64
59411;BME280;45215;32.610;-115.482;2022-07-23T02:19:59;100200.06;;;22.60;39.08
59411;BME280;45215;32.610;-115.482;2022-07-23T02:22:25;100204.00;;;22.44;35.79
59411;BME280;45215;32.610;-115.482;2022-07-23T02:24:51;100198.50;;;22.18;34.37
59411;BME280;45215;32.610;-115.482;2022-07-23T02:27:17;100203.66;;;21.99;34.84
59411;BME280;45215;32.610;-115.482;2022-07-23T02:29:42;100208.72;;;22.36;43.15
59411;BME280;45215;32.610;-115.482;2022-07-23T02:32:08;100215.03;;;22.56;38.43
59411;BME280;45215;32.610;-115.482;2022-07-23T02:34:34;100215.81;;;22.37;35.50
59411;BME280;45215;32.610;-115.482;2022-07-23T02:37:00;100213.06;;;22.10;34.12
59411;BME280;45215;32.610;-115.482;2022-07-23T02:39:26;100220.28;;;22.03;37.46
59411;BME280;45215;32.610;-115.482;2022-07-23T02:52:56;100231.75;;;23.00;40.89
59411;BME280;45215;32.610;-115.482;2022-07-23T02:55:22;100235.63;;;22.64;38.16
59411;BME280;45215;32.610;-115.482;2022-07-23T02:57:48;100232.44;;;22.34;36.82
59411;BME280;45215;32.610;-115.482;2022-07-23T03:00:14;100236.50;;;22.10;35.65
59411;BME280;45215;32.610;-115.482;2022-07-23T03:02:40;100233.53;;;21.91;34.66
59411;BME280;45215;32.610;-115.482;2022-07-23T03:05:06;100232.59;;;21.77;34.06
59411;BME280;45215;32.610;-115.482;2022-07-23T03:07:32;100241.25;;;21.66;33.50
59411;BME280;45215;32.610;-115.482;2022-07-23T03:09:57;100240.94;;;21.82;41.15
59411;BME280;45215;32.610;-115.482;2022-07-23T03:12:23;100235.50;;;22.17;40.52
59411;BME280;45215;32.610;-115.482;2022-07-23T03:14:49;100237.97;;;22.05;37.22
59411;BME280;45215;32.610;-115.482;2022-07-23T03:17:15;100235.81;;;21.88;35.41
59411;BME280;45215;32.610;-115.482;2022-07-23T03:19:41;100242.16;;;21.73;34.43
59411;BME280;45215;32.610;-115.482;2022-07-23T03:22:06;100240.00;;;21.62;33.81
59411;BME280;45215;32.610;-115.482;2022-07-23T03:24:32;100245.06;;;21.78;41.14
59411;BME280;45215;32.610;-115.482;2022-07-23T03:27:17;100241.31;;;22.08;39.56
59411;BME280;45215;32.610;-115.482;2022-07-23T03:29:42;100255.56;;;21.95;36.30
59411;BME280;45215;32.610;-115.482;2022-07-23T03:32:08;100257.94;;;21.76;35.17
59411;BME280;45215;32.610;-115.482;2022-07-23T03:34:35;100242.03;;;21.53;34.02
59411;BME280;45215;32.610;-115.482;2022-07-23T03:37:01;100261.09;;;21.52;35.75
59411;BME280;45215;32.610;-115.482;2022-07-23T03:39:26;100261.97;;;21.87;43.49
59411;BME280;45215;32.610;-115.482;2022-07-23T03:41:52;100263.66;;;21.95;38.07
59411;BME280;45215;32.610;-115.482;2022-07-23T03:44:18;100266.66;;;21.78;35.88
59411;BME280;45215;32.610;-115.482;2022-07-23T03:46:44;100263.66;;;21.60;34.50
59411;BME280;45215;32.610;-115.482;2022-07-23T03:49:10;100282.44;;;21.47;33.35
59411;BME280;45215;32.610;-115.482;2022-07-23T03:51:35;100294.53;;;21.51;38.52
59411;BME280;45215;32.610;-115.482;2022-07-23T03:54:01;100290.84;;;21.87;41.05
59411;BME280;45215;32.610;-115.482;2022-07-23T03:56:27;100292.44;;;21.81;37.03
59411;BME280;45215;32.610;-115.482;2022-07-23T03:58:53;100294.00;;;21.62;34.78
59411;BME280;45215;32.610;-115.482;2022-07-23T04:01:18;100300.91;;;21.43;33.75
59411;BME280;45215;32.610;-115.482;2022-07-23T04:03:44;100308.56;;;21.39;37.79
59411;BME280;45215;32.610;-115.482;2022-07-23T04:06:12;100310.50;;;21.80;42.39
59411;BME280;45215;32.610;-115.482;2022-07-23T04:08:38;100309.25;;;21.76;37.45
59411;BME280;45215;32.610;-115.482;2022-07-23T04:11:04;100317.38;;;21.55;35.27
59411;BME280;45215;32.610;-115.482;2022-07-23T04:13:30;100307.91;;;21.37;34.10
59411;BME280;45215;32.610;-115.482;2022-07-23T04:15:58;100309.72;;;21.30;36.64
59411;BME280;45215;32.610;-115.482;2022-07-23T04:18:23;100320.38;;;21.67;43.97
59411;BME280;45215;32.610;-115.482;2022-07-23T04:20:52;100326.03;;;21.72;37.81
59411;BME280;45215;32.610;-115.482;2022-07-23T04:23:18;100326.28;;;21.49;35.33
59411;BME280;45215;32.610;-115.482;2022-07-23T04:25:44;100325.72;;;21.32;34.06
59411;BME280;45215;32.610;-115.482;2022-07-23T04:28:10;100335.81;;;21.45;40.85
59411;BME280;45215;32.610;-115.482;2022-07-23T04:30:35;100338.09;;;21.76;40.87
59411;BME280;45215;32.610;-115.482;2022-07-23T04:33:01;100340.28;;;21.59;36.74
59411;BME280;45215;32.610;-115.482;2022-07-23T04:35:30;100348.38;;;21.37;34.94
59411;BME280;45215;32.610;-115.482;2022-07-23T04:37:56;100351.59;;;21.26;37.00
59411;BME280;45215;32.610;-115.482;2022-07-23T04:40:22;100357.28;;;21.59;44.35
59411;BME280;45215;32.610;-115.482;2022-07-23T04:42:48;100367.69;;;21.63;38.19
59411;BME280;45215;32.610;-115.482;2022-07-23T04:45:13;100373.09;;;21.41;35.72
59411;BME280;45215;32.610;-115.482;2022-07-23T04:47:39;100380.84;;;21.23;34.24
59411;BME280;45215;32.610;-115.482;2022-07-23T04:50:05;100382.81;;;21.35;41.81
59411;BME280;45215;32.610;-115.482;2022-07-23T04:52:31;100389.94;;;21.65;40.60
59411;BME280;45215;32.610;-115.482;2022-07-23T04:54:56;100389.78;;;21.45;36.75
59411;BME280;45215;32.610;-115.482;2022-07-23T04:57:22;100391.41;;;21.24;34.74
59411;BME280;45215;32.610;-115.482;2022-07-23T04:59:48;100391.75;;;21.14;37.36
59411;BME280;45215;32.610;-115.482;2022-07-23T05:02:14;100392.53;;;21.51;44.29
59411;BME280;45215;32.610;-115.482;2022-07-23T05:04:39;100384.22;;;21.53;38.21
59411;BME280;45215;32.610;-115.482;2022-07-23T05:07:05;100381.72;;;21.30;35.71
59411;BME280;45215;32.610;-115.482;2022-07-23T05:09:31;100393.16;;;21.10;34.28
59411;BME280;45215;32.610;-115.482;2022-07-23T05:11:57;100392.06;;;21.26;42.48
59411;BME280;45215;32.610;-115.482;2022-07-23T05:14:23;100397.53;;;21.54;40.29
59411;BME280;45215;32.610;-115.482;2022-07-23T05:16:48;100402.34;;;21.37;36.84
59411;BME280;45215;32.610;-115.482;2022-07-23T05:19:14;100403.19;;;21.16;35.12
59411;BME280;45215;32.610;-115.482;2022-07-23T05:21:40;100409.25;;;21.04;36.54
59411;BME280;45215;32.610;-115.482;2022-07-23T05:24:06;100415.19;;;21.35;44.33
59411;BME280;45215;32.610;-115.482;2022-07-23T05:26:32;100410.50;;;21.44;38.71
59411;BME280;45215;32.610;-115.482;2022-07-23T05:28:58;100416.91;;;21.22;35.56
59411;BME280;45215;32.610;-115.482;2022-07-23T05:31:23;100415.00;;;21.01;34.45
59411;BME280;45215;32.610;-115.482;2022-07-23T05:33:49;100424.94;;;21.15;42.23
59411;BME280;45215;32.610;-115.482;2022-07-23T05:36:15;100424.84;;;21.45;40.34
59411;BME280;45215;32.610;-115.482;2022-07-23T05:38:41;100421.56;;;21.28;36.96
59411;BME280;45215;32.610;-115.482;2022-07-23T05:41:06;100421.34;;;21.08;34.85
59411;BME280;45215;32.610;-115.482;2022-07-23T05:43:32;100426.19;;;20.98;38.24
59411;BME280;45215;32.610;-115.482;2022-07-23T05:45:58;100431.38;;;21.35;43.91
59411;BME280;45215;32.610;-115.482;2022-07-23T05:48:24;100418.28;;;21.32;37.95
59411;BME280;45215;32.610;-115.482;2022-07-23T05:50:49;100422.19;;;21.08;35.86
59411;BME280;45215;32.610;-115.482;2022-07-23T05:53:15;100423.59;;;20.89;34.91
59411;BME280;45215;32.610;-115.482;2022-07-23T05:55:41;100427.00;;;21.13;42.73
59411;BME280;45215;32.610;-115.482;2022-07-23T05:58:07;100424.19;;;21.43;39.86
59411;BME280;45215;32.610;-115.482;2022-07-23T06:00:34;100427.41;;;21.31;36.14
59411;BME280;45215;32.610;-115.482;2022-07-23T06:03:00;100420.59;;;21.14;34.37
59411;BME280;45215;32.610;-115.482;2022-07-23T06:05:26;100427.91;;;21.20;39.77
59411;BME280;45215;32.610;-115.482;2022-07-23T06:07:52;100424.69;;;21.53;41.78
59411;BME280;45215;32.610;-115.482;2022-07-23T06:10:18;100420.41;;;21.37;37.64
59411;BME280;45215;32.610;-115.482;2022-07-23T06:12:44;100424.50;;;21.11;35.22
59411;BME280;45215;32.610;-115.482;2022-07-23T06:15:10;100426.56;;;20.94;35.80
59411;BME280;45215;32.610;-115.482;2022-07-23T06:17:36;100430.66;;;21.27;44.36
59411;BME280;45215;32.610;-115.482;2022-07-23T06:20:05;100424.50;;;21.33;38.51
59411;BME280;45215;32.610;-115.482;2022-07-23T06:22:31;100414.72;;;21.10;35.65
59411;BME280;45215;32.610;-115.482;2022-07-23T06:24:57;100417.38;;;20.89;34.51
59411;BME280;45215;32.610;-115.482;2022-07-23T06:27:22;100409.44;;;21.02;43.02
59411;BME280;45215;32.610;-115.482;2022-07-23T06:29:48;100419.31;;;21.31;40.22
59411;BME280;45215;32.610;-115.482;2022-07-23T06:32:14;100416.41;;;21.11;36.66
59411;BME280;45215;32.610;-115.482;2022-07-23T06:34:40;100414.47;;;20.90;34.58
59411;BME280;45215;32.610;-115.482;2022-07-23T06:37:05;100410.94;;;20.90;39.25
59411;BME280;45215;32.610;-115.482;2022-07-23T06:41:56;100407.88;;;21.08;37.68
59411;BME280;45215;32.610;-115.482;2022-07-23T06:44:22;100408.19;;;20.83;35.79
59411;BME280;45215;32.610;-115.482;2022-07-23T06:46:48;100404.94;;;20.73;38.34
59411;BME280;45215;32.610;-115.482;2022-07-23T06:49:14;100401.88;;;21.12;44.45
59411;BME280;45215;32.610;-115.482;2022-07-23T06:51:39;100397.16;;;21.00;38.92
59411;BME280;45215;32.610;-115.482;2022-07-23T06:54:05;100400.03;;;20.62;36.52
59411;BME280;45215;32.610;-115.482;2022-07-23T06:56:31;100393.66;;;20.33;36.05
59411;BME280;45215;32.610;-115.482;2022-07-23T06:58:57;100399.38;;;20.75;46.13
59411;BME280;45215;32.610;-115.482;2022-07-23T07:01:22;100396.31;;;21.14;41.44
59411;BME280;45215;32.610;-115.482;2022-07-23T07:03:48;100393.16;;;20.95;37.49
59411;BME280;45215;32.610;-115.482;2022-07-23T07:06:14;100383.97;;;20.68;37.36
59411;BME280;45215;32.610;-115.482;2022-07-23T07:08:40;100388.75;;;20.88;42.09
59411;BME280;45215;32.610;-115.482;2022-07-23T07:11:06;100388.09;;;21.22;42.63
59411;BME280;45215;32.610;-115.482;2022-07-23T07:13:32;100382.13;;;21.05;38.24
59411;BME280;45215;32.610;-115.482;2022-07-23T07:15:57;100379.94;;;20.79;36.44
59411;BME280;45215;32.610;-115.482;2022-07-23T07:18:23;100377.09;;;20.66;38.16
59411;BME280;45215;32.610;-115.482;2022-07-23T07:20:49;100376.13;;;21.10;43.63
59411;BME280;45215;32.610;-115.482;2022-07-23T07:23:15;100380.25;;;21.06;38.93
59411;BME280;45215;32.610;-115.482;2022-07-23T07:25:40;100379.28;;;20.77;36.61
59411;BME280;45215;32.610;-115.482;2022-07-23T07:28:06;100378.00;;;20.58;35.73
59411;BME280;45215;32.610;-115.482;2022-07-23T07:30:32;100379.06;;;20.93;43.01
59411;BME280;45215;32.610;-115.482;2022-07-23T07:32:58;100373.66;;;21.08;40.24
59411;BME280;45215;32.610;-115.482;2022-07-23T07:35:24;100363.38;;;20.82;37.12
59411;BME280;45215;32.610;-115.482;2022-07-23T07:37:50;100358.03;;;20.53;35.34
59411;BME280;45215;32.610;-115.482;2022-07-23T07:40:16;100366.56;;;20.71;41.00
59411;BME280;45215;32.610;-115.482;2022-07-23T07:42:48;100369.47;;;21.06;41.07
59411;BME280;45215;32.610;-115.482;2022-07-23T07:45:14;100368.56;;;20.84;37.50
59411;BME280;45215;32.610;-115.482;2022-07-23T07:47:40;100363.06;;;20.56;35.50
59411;BME280;45215;32.610;-115.482;2022-07-23T07:50:06;100363.50;;;20.59;38.41
59411;BME280;45215;32.610;-115.482;2022-07-23T07:52:34;100369.00;;;21.02;41.89
59411;BME280;45215;32.610;-115.482;2022-07-23T07:55:02;100372.75;;;20.86;37.90
59411;BME280;45215;32.610;-115.482;2022-07-23T07:57:28;100362.69;;;20.59;35.93
59411;BME280;45215;32.610;-115.482;2022-07-23T07:59:54;100378.13;;;20.50;37.58
59411;BME280;45215;32.610;-115.482;2022-07-23T08:02:19;100382.22;;;20.97;43.78
59411;BME280;45215;32.610;-115.482;2022-07-23T08:04:45;100375.72;;;20.91;38.44
59411;BME280;45215;32.610;-115.482;2022-07-23T08:07:11;100371.41;;;20.61;36.16
59411;BME280;45215;32.610;-115.482;2022-07-23T08:09:38;100374.03;;;20.39;35.90
59411;BME280;45215;32.610;-115.482;2022-07-23T08:12:04;100372.03;;;20.78;42.05
59411;BME280;45215;32.610;-115.482;2022-07-23T08:14:29;100369.09;;;20.94;39.73
59411;BME280;45215;32.610;-115.482;2022-07-23T08:16:55;100369.81;;;20.66;36.73
59411;BME280;45215;32.610;-115.482;2022-07-23T08:19:21;100373.03;;;20.40;34.89
59411;BME280;45215;32.610;-115.482;2022-07-23T08:21:47;100362.94;;;20.64;41.13
59411;BME280;45215;32.610;-115.482;2022-07-23T08:24:13;100376.53;;;20.92;40.33
59411;BME280;45215;32.610;-115.482;2022-07-23T08:26:38;100381.44;;;20.67;37.15
59411;BME280;45215;32.610;-115.482;2022-07-23T08:29:04;100367.38;;;20.35;35.29
59411;BME280;45215;32.610;-115.482;2022-07-23T08:31:30;100379.31;;;20.47;39.19
59411;BME280;45215;32.610;-115.482;2022-07-23T08:33:58;100393.28;;;20.87;41.29
59411;BME280;45215;32.610;-115.482;2022-07-23T08:36:24;100382.09;;;20.69;37.51
59411;BME280;45215;32.610;-115.482;2022-07-23T08:38:53;100383.16;;;20.38;35.46
59411;BME280;45215;32.610;-115.482;2022-07-23T08:41:19;100400.53;;;20.36;38.65
59411;BME280;45215;32.610;-115.482;2022-07-23T08:43:45;100402.34;;;20.80;42.81
59411;BME280;45215;32.610;-115.482;2022-07-23T08:46:11;100397.59;;;20.67;37.87
59411;BME280;45215;32.610;-115.482;2022-07-23T08:48:38;100395.59;;;20.39;35.67
59411;BME280;45215;32.610;-115.482;2022-07-23T08:51:05;100403.88;;;20.23;36.94
59411;BME280;45215;32.610;-115.482;2022-07-23T08:53:31;100408.38;;;20.67;43.31
59411;BME280;45215;32.610;-115.482;2022-07-23T08:56:01;100403.66;;;20.69;38.59
59411;BME280;45215;32.610;-115.482;2022-07-23T08:58:27;100394.59;;;20.40;36.14
59411;BME280;45215;32.610;-115.482;2022-07-23T09:00:53;100403.22;;;20.21;35.09
59411;BME280;45215;32.610;-115.482;2022-07-23T09:03:19;100409.69;;;20.56;42.20
59411;BME280;45215;32.610;-115.482;2022-07-23T09:05:46;100410.53;;;20.71;39.20
59411;BME280;45215;32.610;-115.482;2022-07-23T09:08:16;100412.03;;;20.44;36.43
59411;BME280;45215;32.610;-115.482;2022-07-23T09:15:49;100411.09;;;20.67;39.53
59411;BME280;45215;32.610;-115.482;2022-07-23T09:18:15;100405.53;;;20.39;36.58
59411;BME280;45215;32.610;-115.482;2022-07-23T09:20:41;100411.34;;;20.13;35.25
59411;BME280;45215;32.610;-115.482;2022-07-23T09:23:07;100417.50;;;20.36;40.80
59411;BME280;45215;32.610;-115.482;2022-07-23T09:25:32;100421.22;;;20.65;40.26
59411;BME280;45215;32.610;-115.482;2022-07-23T09:27:59;100430.44;;;20.41;37.00
59411;BME280;45215;32.610;-115.482;2022-07-23T09:30:31;100418.44;;;20.14;35.25
59411;BME280;45215;32.610;-115.482;2022-07-23T09:33:04;100430.44;;;20.26;40.70
59411;BME280;45215;32.610;-115.482;2022-07-23T09:38:35;100417.34;;;20.38;36.86
59411;BME280;45215;32.610;-115.482;2022-07-23T09:41:13;100413.59;;;20.09;35.19
59411;BME280;45215;32.610;-115.482;2022-07-23T09:43:39;100418.25;;;20.30;41.01
59411;BME280;45215;32.610;-115.482;2022-07-23T09:48:46;100421.53;;;20.40;37.27
59411;BME280;45215;32.610;-115.482;2022-07-23T09:51:12;100434.28;;;20.09;35.42
59411;BME280;45215;32.610;-115.482;2022-07-23T09:53:42;100434.94;;;20.11;39.07
59411;BME280;45215;32.610;-115.482;2022-07-23T09:56:08;100438.13;;;20.59;44.49
59411;BME280;45215;32.610;-115.482;2022-07-23T09:58:35;100438.06;;;20.52;38.85
59411;BME280;45215;32.610;-115.482;2022-07-23T10:01:09;100431.81;;;20.22;36.33
59411;BME280;45215;32.610;-115.482;2022-07-23T10:03:35;100430.84;;;20.00;36.17
59411;BME280;45215;32.610;-115.482;2022-07-23T10:06:02;100421.25;;;20.35;42.73
59411;BME280;45215;32.610;-115.482;2022-07-23T10:08:28;100424.03;;;20.57;40.26
59411;BME280;45215;32.610;-115.482;2022-07-23T10:10:55;100412.88;;;20.30;37.07
59411;BME280;45215;32.610;-115.482;2022-07-23T10:13:21;100434.00;;;20.03;35.40
59411;BME280;45215;32.610;-115.482;2022-07-23T10:15:47;100444.50;;;20.13;39.78
59411;BME280;45215;32.610;-115.482;2022-07-23T10:18:13;100452.63;;;20.58;44.43
59411;BME280;45215;32.610;-115.482;2022-07-23T10:20:39;100459.25;;;20.55;38.95
59411;BME280;45215;32.610;-115.482;2022-07-23T10:23:27;100462.47;;;20.21;36.58
59411;BME280;45215;32.610;-115.482;2022-07-23T10:32:08;100461.19;;;20.46;38.63
59411;BME280;45215;32.610;-115.482;2022-07-23T10:34:44;100451.94;;;20.11;36.24
59411;BME280;45215;32.610;-115.482;2022-07-23T10:37:17;100460.09;;;20.03;39.30
59411;BME280;45215;32.610;-115.482;2022-07-23T10:40:08;100462.47;;;20.50;44.36
59411;BME280;45215;32.610;-115.482;2022-07-23T10:42:34;100455.06;;;20.53;39.86
59411;BME280;45215;32.610;-115.482;2022-07-23T10:45:00;100448.84;;;20.22;36.94
59411;BME280;45215;32.610;-115.482;2022-07-23T10:47:29;100452.75;;;19.97;36.34
59411;BME280;45215;32.610;-115.482;2022-07-23T10:50:16;100445.31;;;20.37;43.98
59411;BME280;45215;32.610;-115.482;2022-07-23T10:52:42;100453.09;;;20.61;40.98
59411;BME280;45215;32.610;-115.482;2022-07-23T10:55:38;100454.97;;;20.31;37.36
59411;BME280;45215;32.610;-115.482;2022-07-23T10:58:05;100448.50;;;20.02;35.76
59411;BME280;45215;32.610;-115.482;2022-07-23T11:00:31;100442.50;;;20.30;42.55
59411;BME280;45215;32.610;-115.482;2022-07-23T11:02:59;100441.00;;;20.72;45.32
59411;BME280;45215;32.610;-115.482;2022-07-23T11:05:46;100437.88;;;20.54;39.19
59411;BME280;45215;32.610;-115.482;2022-07-23T11:08:15;100435.06;;;20.17;36.95
59411;BME280;45215;32.610;-115.482;2022-07-23T11:10:55;100438.28;;;20.13;39.24
59411;BME280;45215;32.610;-115.482;2022-07-23T11:29:36;100448.00;;;20.52;39.98
59411;BME280;45215;32.610;-115.482;2022-07-23T11:32:06;100445.06;;;20.09;37.32
59411;BME280;45215;32.610;-115.482;2022-07-23T11:36:56;100446.97;;;20.38;45.87
59411;BME280;45215;32.610;-115.482;2022-07-23T11:39:22;100442.31;;;20.61;42.79
59411;BME280;45215;32.610;-115.482;2022-07-23T11:41:50;100442.88;;;20.27;38.72
59411;BME280;45215;32.610;-115.482;2022-07-23T11:46:55;100445.50;;;19.97;40.62
59411;BME280;45215;32.610;-115.482;2022-07-23T11:49:21;100461.84;;;20.48;46.15
59411;BME280;45215;32.610;-115.482;2022-07-23T11:51:46;100461.28;;;20.68;42.28
59411;BME280;45215;32.610;-115.482;2022-07-23T11:54:12;100468.25;;;20.33;38.15
59411;BME280;45215;32.610;-115.482;2022-07-23T11:56:54;100464.00;;;20.00;36.42
59411;BME280;45215;32.610;-115.482;2022-07-23T11:59:19;100475.66;;;20.16;42.83
59411;BME280;45215;32.610;-115.482;2022-07-23T12:01:59;100481.75;;;20.62;47.05
59411;BME280;45215;32.610;-115.482;2022-07-23T12:04:36;100474.19;;;20.58;40.71
59411;BME280;45215;32.610;-115.482;2022-07-23T12:07:02;100476.31;;;20.18;37.48
59411;BME280;45215;32.610;-115.482;2022-07-23T12:09:28;100465.13;;;20.06;40.17
59411;BME280;45215;32.610;-115.482;2022-07-23T12:12:00;100466.22;;;20.49;45.91
59411;BME280;45215;32.610;-115.482;2022-07-23T12:14:26;100461.38;;;20.75;43.49
59411;BME280;45215;32.610;-115.482;2022-07-23T12:17:08;100453.66;;;20.42;38.66
59411;BME280;45215;32.610;-115.482;2022-07-23T12:19:34;100455.97;;;20.15;40.01
59411;BME280;45215;32.610;-115.482;2022-07-23T12:22:00;100466.88;;;20.52;46.33
59411;BME280;45215;32.610;-115.482;2022-07-23T12:24:26;100458.75;;;20.81;44.63
59411;BME280;45215;32.610;-115.482;2022-07-23T12:27:25;100456.47;;;20.48;39.52
59411;BME280;45215;32.610;-115.482;2022-07-23T12:29:44;100464.91;;;20.08;37.82
59411;BME280;45215;32.610;-115.482;2022-07-23T12:34:44;100460.81;;;20.79;47.04
59411;BME280;45215;32.610;-115.482;2022-07-23T12:37:28;100469.47;;;20.60;40.68
59411;BME280;45215;32.610;-115.482;2022-07-23T12:39:55;100471.94;;;20.17;37.85
59411;BME280;45215;32.610;-115.482;2022-07-23T12:42:20;100482.16;;;20.36;45.01
59411;BME280;45215;32.610;-115.482;2022-07-23T12:45:03;100490.66;;;20.78;48.32
59411;BME280;45215;32.610;-115.482;2022-07-23T12:47:29;100501.72;;;20.68;41.56
59411;BME280;45215;32.610;-115.482;2022-07-23T12:49:55;100509.84;;;20.30;38.18
59411;BME280;45215;32.610;-115.482;2022-07-23T12:52:21;100525.28;;;20.36;44.24
59411;BME280;45215;32.610;-115.482;2022-07-23T12:54:46;100527.56;;;20.77;48.47
59411;BME280;45215;32.610;-115.482;2022-07-23T12:57:12;100535.06;;;20.82;43.58
59411;BME280;45215;32.610;-115.482;2022-07-23T12:59:38;100528.25;;;20.41;39.28
59411;BME280;45215;32.610;-115.482;2022-07-23T13:02:04;100544.56;;;20.25;41.77
59411;BME280;45215;32.610;-115.482;2022-07-23T13:04:33;100551.25;;;20.67;48.31
59411;BME280;45215;32.610;-115.482;2022-07-23T13:06:59;100557.38;;;20.90;45.80
59411;BME280;45215;32.610;-115.482;2022-07-23T13:09:30;100564.53;;;20.54;40.84
59411;BME280;45215;32.610;-115.482;2022-07-23T13:11:56;100576.44;;;20.21;39.99
59411;BME280;45215;32.610;-115.482;2022-07-23T13:14:23;100599.56;;;20.54;46.87